Terminal Aerodrome Forecast
Issued by NWS Knoxville/Tri Cities, TN

Current Version | Previous Version | Text Only | Print | Product List | Glossary On
Versions: 1 2 3 4 5 6 7 8 9 10 11 12 13 14 15 16
000
FTUS44 KMRX 272333
TAFTYS
TAF
KTYS 272333Z 2800/2824 28006KT P6SM OVC060
     FM280300 26007KT P6SM OVC050
     FM280900 04003KT P6SM OVC040
     FM281400 02003KT P6SM OVC030
     FM281800 22010KT P6SM -RA OVC050
     FM282200 22008KT 6SM -DZ OVC015=

USA.gov is the U.S. government's official web portal to all federal, state and local government web resources and services.